createdAt,value
2022-11-29T00:01:37.127Z,21.55
2022-11-29T00:04:04.767Z,15.45
2022-11-29T00:06:34.401Z,17.95
2022-11-29T00:09:07.636Z,16.98
2022-11-29T00:11:56.210Z,17.17
2022-11-29T00:14:26.377Z,15.18
2022-11-29T00:17:02.034Z,18.77
2022-11-29T00:19:30.650Z,16.80
2022-11-29T00:21:59.511Z,13.55
2022-11-29T00:24:28.167Z,13.55
2022-11-29T00:26:54.994Z,16.63
2022-11-29T00:29:21.925Z,22.27
2022-11-29T00:31:49.124Z,21.40
2022-11-29T00:34:16.119Z,27.25
2022-11-29T00:36:43.098Z,21.17
2022-11-29T00:39:12.155Z,20.45
2022-11-29T00:41:39.984Z,22.13
2022-11-29T00:44:07.047Z,17.95
2022-11-29T00:46:34.088Z,20.63
2022-11-29T00:49:01.075Z,17.80
2022-11-29T00:51:28.304Z,14.25
2022-11-29T00:53:55.132Z,15.52
2022-11-29T00:56:22.171Z,17.67
2022-11-29T00:58:49.522Z,13.13
2022-11-29T01:01:16.869Z,16.63
2022-11-29T01:03:43.902Z,14.07
2022-11-29T01:06:16.161Z,18.75
2022-11-29T01:08:43.405Z,15.48
2022-11-29T01:11:21.594Z,13.73
2022-11-29T01:13:50.851Z,11.93
2022-11-29T01:16:18.049Z,16.70
2022-11-29T01:18:45.452Z,13.20
2022-11-29T01:21:16.943Z,15.98
2022-11-29T01:23:45.024Z,12.85
2022-11-29T01:26:16.043Z,13.10
2022-11-29T01:28:43.231Z,10.27
2022-11-29T01:31:14.699Z,11.65
2022-11-29T01:33:42.198Z,14.50
2022-11-29T01:36:10.280Z,11.82
2022-11-29T01:38:37.347Z,12.88
2022-11-29T01:41:18.467Z,11.68
2022-11-29T01:43:59.241Z,10.38
2022-11-29T01:46:29.570Z,12.52
2022-11-29T01:49:04.195Z,8.95
2022-11-29T01:51:33.090Z,11.15
2022-11-29T01:54:00.200Z,12.18
2022-11-29T01:56:29.412Z,9.98
2022-11-29T01:58:56.815Z,10.50
2022-11-29T02:01:24.055Z,10.07
2022-11-29T02:03:50.935Z,11.73
2022-11-29T02:06:18.387Z,10.30
2022-11-29T02:08:45.306Z,11.07
2022-11-29T02:11:34.499Z,14.07
2022-11-29T02:14:33.322Z,11.98
2022-11-29T02:17:43.984Z,12.25
2022-11-29T02:20:16.795Z,10.73
2022-11-29T02:23:17.651Z,9.07
2022-11-29T02:26:08.163Z,9.00
2022-11-29T02:29:04.260Z,6.25
2022-11-29T02:31:59.240Z,7.22
2022-11-29T02:34:53.619Z,7.82
2022-11-29T02:37:58.019Z,9.70
2022-11-29T02:40:51.029Z,10.95
2022-11-29T02:43:31.270Z,7.63
2022-11-29T02:46:31.218Z,10.10
2022-11-29T02:49:44.187Z,14.70
2022-11-29T02:52:28.244Z,9.80
2022-11-29T02:55:02.886Z,12.32
2022-11-29T02:57:37.501Z,10.13
2022-11-29T03:00:15.901Z,14.65
2022-11-29T03:02:51.934Z,12.90
2022-11-29T03:05:44.870Z,14.23
2022-11-29T03:08:17.890Z,9.73
2022-11-29T03:11:32.065Z,13.48
2022-11-29T03:14:50.012Z,16.55
2022-11-29T03:17:51.505Z,12.82
2022-11-29T03:20:38.162Z,19.65
2022-11-29T03:23:20.697Z,16.42
2022-11-29T03:26:02.367Z,24.30
2022-11-29T03:28:37.344Z,15.48
2022-11-29T03:31:23.515Z,16.75
2022-11-29T03:34:13.881Z,13.90
2022-11-29T03:36:58.645Z,16.65
2022-11-29T03:39:55.780Z,17.80
2022-11-29T03:42:52.962Z,38.42
2022-11-29T03:45:30.430Z,24.58
2022-11-29T03:48:13.699Z,24.30
2022-11-29T03:53:45.517Z,22.98
2022-11-29T03:56:29.489Z,14.02
2022-11-29T03:59:26.898Z,14.68
2022-11-29T04:02:11.899Z,16.48
2022-11-29T04:05:20.486Z,19.75
2022-11-29T04:08:08.354Z,24.73
2022-11-29T04:11:14.027Z,16.90
2022-11-29T04:13:52.841Z,25.20
2022-11-29T04:17:15.493Z,23.23
2022-11-29T04:20:41.250Z,24.60
2022-11-29T04:23:37.669Z,19.15
2022-11-29T04:29:40.041Z,13.48
2022-11-29T04:32:12.632Z,12.32
2022-11-29T04:35:16.606Z,17.90
2022-11-29T04:38:01.558Z,15.45
2022-11-29T04:41:10.603Z,21.05
2022-11-29T04:44:11.391Z,11.55
2022-11-29T04:47:19.192Z,21.88
2022-11-29T04:50:14.550Z,15.18
2022-11-29T04:53:14.603Z,14.50
2022-11-29T04:56:27.812Z,14.45
2022-11-29T04:59:16.410Z,13.57
2022-11-29T05:02:24.543Z,14.32
2022-11-29T05:05:04.463Z,20.58
2022-11-29T05:07:58.921Z,15.18
2022-11-29T05:10:56.720Z,11.73
2022-11-29T05:13:29.362Z,15.55
2022-11-29T05:16:14.724Z,14.15
2022-11-29T05:19:38.930Z,14.13
2022-11-29T05:22:26.066Z,16.38
2022-11-29T05:25:37.902Z,10.95
2022-11-29T05:28:26.305Z,20.25
2022-11-29T05:31:42.646Z,15.65
2022-11-29T05:34:43.323Z,13.98
2022-11-29T05:37:55.486Z,16.25
2022-11-29T05:40:57.607Z,15.30
2022-11-29T05:44:01.097Z,13.88
2022-11-29T05:46:57.307Z,17.50
2022-11-29T05:49:52.318Z,15.70
2022-11-29T05:52:34.220Z,10.43
2022-11-29T05:55:17.430Z,20.67
2022-11-29T05:58:08.870Z,17.33
2022-11-29T06:00:54.234Z,19.25
2022-11-29T06:03:51.332Z,12.70
2022-11-29T06:06:47.172Z,17.25
2022-11-29T06:09:30.823Z,12.52
2022-11-29T06:12:20.652Z,21.00
2022-11-29T06:15:38.454Z,13.38
2022-11-29T06:18:46.453Z,11.60
2022-11-29T06:21:50.103Z,11.15
2022-11-29T06:24:36.884Z,22.00
2022-11-29T06:28:00.527Z,22.70
2022-11-29T06:31:03.992Z,16.83
2022-11-29T06:34:10.277Z,20.13
2022-11-29T06:36:56.918Z,17.90
2022-11-29T06:39:24.309Z,19.90
2022-11-29T06:41:51.204Z,17.27
2022-11-29T06:44:18.456Z,19.15
2022-11-29T06:47:18.645Z,12.02
2022-11-29T06:49:54.582Z,19.25
2022-11-29T06:52:55.229Z,18.70
2022-11-29T06:55:31.686Z,18.08
2022-11-29T06:58:19.778Z,21.65
2022-11-29T07:01:25.701Z,15.00
2022-11-29T07:04:24.328Z,15.75
2022-11-29T07:06:51.596Z,27.73
2022-11-29T07:09:22.090Z,18.92
2022-11-29T07:11:49.208Z,16.10
2022-11-29T07:14:16.366Z,21.35
2022-11-29T07:17:15.960Z,20.42
2022-11-29T07:20:02.724Z,24.10
2022-11-29T07:23:03.392Z,16.40
2022-11-29T07:25:54.627Z,13.95
2022-11-29T07:28:55.662Z,17.42
2022-11-29T07:31:54.251Z,18.20
2022-11-29T07:34:52.006Z,15.73
2022-11-29T07:37:58.239Z,14.65
2022-11-29T07:41:05.308Z,17.73
2022-11-29T07:43:57.068Z,16.13
2022-11-29T07:46:25.578Z,21.02
2022-11-29T07:48:52.435Z,21.73
2022-11-29T07:51:19.286Z,16.55
2022-11-29T07:53:46.172Z,16.45
2022-11-29T07:56:12.963Z,16.60
2022-11-29T07:58:39.919Z,16.98
2022-11-29T08:01:06.954Z,22.23
2022-11-29T08:03:35.417Z,26.02
2022-11-29T08:06:03.405Z,18.40
2022-11-29T08:08:30.320Z,15.57
2022-11-29T08:10:57.177Z,16.55
2022-11-29T08:13:24.050Z,18.70
2022-11-29T08:15:51.258Z,15.95
2022-11-29T08:18:18.594Z,19.60
2022-11-29T08:20:46.362Z,20.88
2022-11-29T08:23:14.372Z,14.88
2022-11-29T08:25:41.941Z,22.38
2022-11-29T08:28:09.435Z,15.90
2022-11-29T08:30:36.510Z,20.17
2022-11-29T08:33:03.480Z,13.82
2022-11-29T08:35:30.662Z,16.52
2022-11-29T08:37:57.556Z,17.65
2022-11-29T08:40:24.531Z,14.70
2022-11-29T08:42:51.440Z,15.88
2022-11-29T08:45:18.471Z,16.20
2022-11-29T08:47:45.324Z,14.57
2022-11-29T08:50:18.241Z,18.65
2022-11-29T08:53:07.220Z,15.25
2022-11-29T08:55:42.891Z,17.33
2022-11-29T08:58:13.967Z,15.13
2022-11-29T09:00:43.468Z,16.02
2022-11-29T09:03:28.872Z,17.80
2022-11-29T09:05:55.703Z,14.75
2022-11-29T09:08:22.596Z,17.33
2022-11-29T09:10:50.034Z,13.30
2022-11-29T09:13:18.096Z,17.30
2022-11-29T09:15:45.019Z,16.52
2022-11-29T09:18:12.030Z,14.13
2022-11-29T09:20:42.508Z,9.98
2022-11-29T09:23:10.493Z,12.30
2022-11-29T09:25:37.453Z,13.90
2022-11-29T09:28:04.528Z,14.20
2022-11-29T09:30:31.925Z,16.25
2022-11-29T09:33:05.177Z,20.15
2022-11-29T09:35:33.087Z,16.50
2022-11-29T09:38:00.270Z,11.77
2022-11-29T09:40:41.458Z,13.77
2022-11-29T09:43:34.034Z,23.38
2022-11-29T09:46:18.254Z,12.10
2022-11-29T09:49:09.856Z,20.58
2022-11-29T09:51:44.497Z,15.65
2022-11-29T09:54:38.620Z,14.00
2022-11-29T09:57:10.666Z,17.42
2022-11-29T09:59:47.198Z,18.60
2022-11-29T10:02:21.674Z,13.73
2022-11-29T10:05:15.118Z,15.85
2022-11-29T10:07:50.725Z,16.13
2022-11-29T10:10:23.708Z,16.77
2022-11-29T10:15:46.138Z,21.52
2022-11-29T10:18:38.575Z,16.08
2022-11-29T10:21:14.685Z,19.10
2022-11-29T10:23:59.937Z,17.58
2022-11-29T10:26:32.102Z,18.95
2022-11-29T10:29:01.858Z,20.35
2022-11-29T10:31:42.889Z,19.65
2022-11-29T10:34:31.182Z,19.60
2022-11-29T10:37:01.275Z,15.85
2022-11-29T10:39:44.658Z,21.55
2022-11-29T10:42:48.699Z,20.48
2022-11-29T10:45:28.621Z,17.10
2022-11-29T10:48:03.758Z,17.27
2022-11-29T10:50:35.042Z,16.42
2022-11-29T10:53:12.747Z,16.70
2022-11-29T10:56:06.547Z,16.00
2022-11-29T10:58:33.955Z,18.98
2022-11-29T11:01:07.325Z,16.77
2022-11-29T11:03:34.147Z,18.48
2022-11-29T11:06:18.355Z,16.15
2022-11-29T11:09:16.606Z,21.05
2022-11-29T11:11:55.487Z,19.10
2022-11-29T11:14:28.474Z,16.50
2022-11-29T11:19:32.560Z,20.15
2022-11-29T11:22:03.080Z,16.30
2022-11-29T11:24:41.035Z,17.00
2022-11-29T11:27:08.373Z,17.27
2022-11-29T11:29:42.730Z,16.40
2022-11-29T11:32:20.319Z,16.05
2022-11-29T11:34:56.921Z,15.88
2022-11-29T11:37:31.081Z,19.90
2022-11-29T11:40:20.051Z,16.40
2022-11-29T11:42:47.082Z,23.55
2022-11-29T11:45:13.803Z,18.98
2022-11-29T11:47:52.926Z,20.80
2022-11-29T11:50:44.393Z,28.27
2022-11-29T11:53:36.362Z,23.08
2022-11-29T11:56:08.260Z,19.83
2022-11-29T11:58:45.534Z,21.98
2022-11-29T12:01:12.441Z,19.08
2022-11-29T12:04:05.927Z,20.88
2022-11-29T12:09:28.452Z,19.80
2022-11-29T12:12:13.447Z,15.45
2022-11-29T12:15:02.171Z,19.42
2022-11-29T12:17:46.389Z,17.85
2022-11-29T12:20:43.211Z,20.00
2022-11-29T12:23:12.969Z,13.95
2022-11-29T12:25:47.983Z,23.17
2022-11-29T12:28:20.702Z,25.42
2022-11-29T12:33:43.017Z,25.25
2022-11-29T12:36:19.867Z,18.95
2022-11-29T12:39:15.860Z,20.38
2022-11-29T12:42:06.646Z,27.25
2022-11-29T12:44:47.242Z,22.20
2022-11-29T12:47:35.623Z,17.52
2022-11-29T12:50:24.540Z,22.08
2022-11-29T12:53:36.072Z,22.45
2022-11-29T12:56:41.248Z,19.77
2022-11-29T12:59:23.027Z,18.65
2022-11-29T13:02:22.060Z,22.02
2022-11-29T13:05:10.657Z,21.27
2022-11-29T13:07:58.811Z,24.85
2022-11-29T13:11:03.762Z,22.33
2022-11-29T13:14:42.277Z,29.10
2022-11-29T13:17:27.223Z,26.38
2022-11-29T13:19:59.439Z,26.98
2022-11-29T13:22:47.856Z,24.15
2022-11-29T13:25:22.504Z,21.65
2022-11-29T13:28:20.402Z,21.60
2022-11-29T13:30:47.633Z,24.13
2022-11-29T13:33:55.535Z,28.52
2022-11-29T13:37:05.069Z,23.38
2022-11-29T13:40:19.209Z,24.33
2022-11-29T13:43:11.430Z,30.60
2022-11-29T13:46:06.556Z,25.63
2022-11-29T13:48:54.348Z,24.40
2022-11-29T13:51:26.031Z,25.75
2022-11-29T13:53:55.615Z,17.13
2022-11-29T13:56:43.170Z,26.33
2022-11-29T13:59:29.491Z,22.55
2022-11-29T14:01:58.530Z,28.92
2022-11-29T14:04:37.781Z,26.65
2022-11-29T14:07:12.296Z,32.75
2022-11-29T14:09:56.903Z,25.02
2022-11-29T14:12:42.495Z,28.73
2022-11-29T14:15:28.167Z,30.75
2022-11-29T14:17:59.763Z,31.38
2022-11-29T14:20:28.080Z,37.55
2022-11-29T14:23:07.755Z,33.25
2022-11-29T14:25:53.117Z,30.13
2022-11-29T14:28:23.183Z,35.33
2022-11-29T14:30:58.815Z,22.60
2022-11-29T14:34:09.412Z,28.48
2022-11-29T14:37:21.671Z,36.78
2022-11-29T14:39:52.916Z,27.20
2022-11-29T14:42:22.593Z,35.40
2022-11-29T14:45:04.651Z,32.72
2022-11-29T14:47:34.381Z,33.72
2022-11-29T14:50:08.877Z,38.67
2022-11-29T14:52:52.636Z,28.70
2022-11-29T14:55:25.338Z,34.88
2022-11-29T14:58:03.715Z,37.20
2022-11-29T15:00:47.461Z,29.35
2022-11-29T15:03:30.807Z,44.80
2022-11-29T15:06:23.470Z,31.27
2022-11-29T15:09:04.891Z,37.60
2022-11-29T15:11:50.417Z,39.80
2022-11-29T15:14:34.526Z,44.05
2022-11-29T15:17:30.693Z,25.02
2022-11-29T15:20:45.746Z,34.08
2022-11-29T15:23:18.845Z,37.47
2022-11-29T15:25:54.564Z,35.90
2022-11-29T15:28:25.494Z,33.80
2022-11-29T15:31:08.652Z,27.65
2022-11-29T15:33:41.019Z,38.60
2022-11-29T15:36:17.894Z,31.55
2022-11-29T15:38:47.369Z,33.53
2022-11-29T15:41:34.306Z,29.67
2022-11-29T15:44:07.361Z,30.10
2022-11-29T15:49:28.478Z,26.55
2022-11-29T15:52:03.431Z,34.85
2022-11-29T15:54:59.844Z,37.63
2022-11-29T15:57:39.457Z,31.73
2022-11-29T16:00:12.044Z,39.40
2022-11-29T16:02:48.011Z,38.75
2022-11-29T16:05:22.550Z,33.03
2022-11-29T16:07:55.656Z,44.90
2022-11-29T16:10:36.163Z,40.53
2022-11-29T16:13:23.677Z,38.67
2022-11-29T16:16:14.296Z,41.85
2022-11-29T16:18:44.065Z,39.78
2022-11-29T16:21:32.274Z,48.42
2022-11-29T16:24:11.632Z,43.50
2022-11-29T16:26:43.756Z,36.45
2022-11-29T16:29:49.610Z,38.90
2022-11-29T16:32:38.240Z,41.17
2022-11-29T16:35:37.670Z,41.60
2022-11-29T16:38:04.925Z,42.67
2022-11-29T16:40:34.667Z,37.22
2022-11-29T16:43:04.601Z,47.42
2022-11-29T16:45:42.386Z,47.53
2022-11-29T16:48:26.299Z,30.23
2022-11-29T16:51:14.045Z,45.83
2022-11-29T16:53:48.030Z,41.53
2022-11-29T16:56:19.113Z,49.40
2022-11-29T16:59:25.326Z,50.95
2022-11-29T17:01:40.445Z,42.88
2022-11-29T17:04:09.939Z,53.50
2022-11-29T17:06:37.898Z,51.95
2022-11-29T17:09:05.369Z,42.30
2022-11-29T17:11:32.342Z,55.80
2022-11-29T17:13:59.171Z,44.20
2022-11-29T17:16:26.041Z,44.40
2022-11-29T17:18:53.803Z,48.10
2022-11-29T17:21:30.060Z,43.95
2022-11-29T17:23:57.501Z,41.67
2022-11-29T17:26:24.852Z,46.92
2022-11-29T17:28:52.593Z,34.65
2022-11-29T17:31:23.038Z,46.38
2022-11-29T17:33:51.075Z,39.70
2022-11-29T17:36:20.592Z,42.78
2022-11-29T17:38:48.048Z,46.83
2022-11-29T17:41:23.187Z,41.97
2022-11-29T17:43:52.063Z,52.42
2022-11-29T17:46:31.280Z,45.33
2022-11-29T17:49:04.650Z,42.85
2022-11-29T17:54:18.698Z,44.00
2022-11-29T17:56:45.546Z,40.40
2022-11-29T17:59:12.336Z,48.03
2022-11-29T18:01:39.305Z,36.85
2022-11-29T18:04:06.918Z,53.92
2022-11-29T18:06:39.920Z,36.53
2022-11-29T18:11:49.072Z,39.47
2022-11-29T18:14:23.674Z,35.33
2022-11-29T18:16:51.671Z,39.40
2022-11-29T18:19:21.637Z,41.83
2022-11-29T18:21:49.763Z,42.85
2022-11-29T18:24:16.885Z,49.58
2022-11-29T18:26:44.160Z,41.75
2022-11-29T18:29:11.534Z,36.03
2022-11-29T18:31:42.695Z,43.85
2022-11-29T18:34:13.282Z,46.15
2022-11-29T18:36:48.604Z,42.28
2022-11-29T18:39:19.504Z,48.42
2022-11-29T18:41:50.321Z,49.08
2022-11-29T18:44:21.445Z,41.75
2022-11-29T18:46:49.004Z,43.70
2022-11-29T18:49:17.902Z,51.08
2022-11-29T18:51:46.296Z,43.20
2022-11-29T18:54:15.620Z,49.05
2022-11-29T18:56:44.643Z,49.08
2022-11-29T18:59:17.338Z,44.38
2022-11-29T19:01:46.748Z,59.05
2022-11-29T19:04:17.516Z,44.80
2022-11-29T19:06:44.850Z,40.80
2022-11-29T19:09:19.719Z,46.40
2022-11-29T19:11:48.641Z,52.60
2022-11-29T19:14:15.531Z,48.80
2022-11-29T19:16:45.926Z,39.58
2022-11-29T19:19:12.981Z,39.90
2022-11-29T19:21:40.789Z,42.05
2022-11-29T19:24:14.534Z,38.25
2022-11-29T19:26:44.944Z,38.35
2022-11-29T19:29:13.764Z,43.00
2022-11-29T19:31:41.230Z,45.67
2022-11-29T19:34:08.358Z,41.72
2022-11-29T19:36:37.278Z,39.67
2022-11-29T19:39:04.755Z,36.58
2022-11-29T19:41:35.171Z,40.80
2022-11-29T19:44:05.747Z,42.83
2022-11-29T19:46:36.173Z,34.65
2022-11-29T19:49:06.485Z,32.70
2022-11-29T19:51:34.012Z,36.17
2022-11-29T19:54:04.706Z,46.50
2022-11-29T19:56:32.572Z,40.08
2022-11-29T19:58:59.969Z,48.78
2022-11-29T20:01:37.886Z,42.00
2022-11-29T20:04:07.708Z,43.55
2022-11-29T20:06:35.075Z,44.97
2022-11-29T20:09:02.478Z,38.92
2022-11-29T20:11:29.815Z,49.65
2022-11-29T20:14:00.486Z,48.15
2022-11-29T20:16:29.222Z,43.78
2022-11-29T20:18:59.067Z,56.75
2022-11-29T20:21:32.045Z,48.75
2022-11-29T20:24:08.793Z,47.30
2022-11-29T20:26:38.724Z,42.00
2022-11-29T20:29:08.297Z,40.20
2022-11-29T20:31:37.545Z,43.53
2022-11-29T20:34:05.159Z,47.92
2022-11-29T20:36:56.939Z,35.25
2022-11-29T20:39:47.695Z,45.55
2022-11-29T20:42:31.237Z,53.80
2022-11-29T20:45:05.934Z,55.00
2022-11-29T20:47:33.968Z,52.17
2022-11-29T20:50:01.062Z,51.80
2022-11-29T20:52:41.784Z,44.67
2022-11-29T20:55:09.276Z,44.50
2022-11-29T20:57:38.460Z,42.55
2022-11-29T21:00:13.933Z,46.42
2022-11-29T21:02:40.920Z,44.75
2022-11-29T21:05:08.746Z,33.90
2022-11-29T21:07:35.953Z,41.63
2022-11-29T21:10:05.189Z,37.20
2022-11-29T21:12:32.555Z,41.33
2022-11-29T21:14:59.775Z,38.35
2022-11-29T21:17:33.172Z,54.05
2022-11-29T21:20:01.520Z,50.15
2022-11-29T21:22:54.604Z,48.67
2022-11-29T21:25:55.472Z,47.90
2022-11-29T21:28:32.356Z,39.13
2022-11-29T21:30:59.756Z,30.13
2022-11-29T21:33:27.345Z,40.90
2022-11-29T21:35:58.019Z,36.90
2022-11-29T21:38:26.851Z,45.63
2022-11-29T21:40:53.710Z,51.03
2022-11-29T21:43:22.801Z,41.63
2022-11-29T21:46:00.370Z,46.20
2022-11-29T21:48:35.999Z,40.72
2022-11-29T21:51:07.315Z,43.30
2022-11-29T21:53:36.625Z,41.00
2022-11-29T21:56:07.450Z,52.47
2022-11-29T21:58:35.964Z,54.08
2022-11-29T22:01:07.945Z,45.70
2022-11-29T22:03:35.142Z,51.03
2022-11-29T22:06:08.580Z,37.75
2022-11-29T22:08:42.199Z,31.73
2022-11-29T22:11:12.815Z,35.10
2022-11-29T22:14:00.989Z,39.90
2022-11-29T22:16:29.809Z,38.92
2022-11-29T22:18:56.682Z,33.78
2022-11-29T22:21:23.655Z,45.05
2022-11-29T22:23:52.585Z,29.67
2022-11-29T22:26:19.527Z,44.55
2022-11-29T22:28:46.362Z,27.52
2022-11-29T22:31:13.514Z,38.42
2022-11-29T22:33:40.649Z,41.17
2022-11-29T22:36:10.795Z,32.83
2022-11-29T22:38:38.472Z,49.13
2022-11-29T22:41:10.918Z,35.97
2022-11-29T22:43:39.673Z,42.72
2022-11-29T22:46:16.708Z,44.55
2022-11-29T22:48:46.552Z,33.53
2022-11-29T22:51:16.875Z,40.50
2022-11-29T22:53:55.740Z,42.60
2022-11-29T22:56:26.453Z,38.58
2022-11-29T22:58:54.369Z,38.67
2022-11-29T23:01:24.248Z,38.55
2022-11-29T23:03:54.746Z,36.60
2022-11-29T23:06:27.543Z,42.85
2022-11-29T23:08:58.151Z,34.53
2022-11-29T23:11:28.576Z,40.75
2022-11-29T23:13:56.471Z,35.00
2022-11-29T23:16:27.655Z,40.95
2022-11-29T23:18:58.046Z,37.28
2022-11-29T23:21:31.714Z,37.13
2022-11-29T23:24:00.901Z,43.33
2022-11-29T23:26:44.716Z,31.80
2022-11-29T23:29:18.134Z,44.42
2022-11-29T23:31:46.747Z,37.38
2022-11-29T23:34:14.351Z,35.33
2022-11-29T23:36:41.599Z,54.03
2022-11-29T23:39:08.728Z,50.40
2022-11-29T23:41:36.973Z,56.17
2022-11-29T23:44:08.572Z,46.63
2022-11-29T23:46:36.077Z,48.50
2022-11-29T23:49:03.563Z,45.42
2022-11-29T23:51:30.606Z,49.00
2022-11-29T23:53:57.583Z,50.10
2022-11-29T23:56:24.376Z,43.50
2022-11-29T23:58:51.263Z,53.30
